sensor_id;sensor_type;location;lat;lon;timestamp;temperature;humidity
38325;DHT22;24126;52.672;13.622;2022-12-07T00:00:46;8.60;76.80
38325;DHT22;24126;52.672;13.622;2022-12-07T00:03:13;8.60;76.80
38325;DHT22;24126;52.672;13.622;2022-12-07T00:05:40;8.60;76.70
38325;DHT22;24126;52.672;13.622;2022-12-07T00:08:07;8.50;76.60
38325;DHT22;24126;52.672;13.622;2022-12-07T00:10:38;8.50;76.70
38325;DHT22;24126;52.672;13.622;2022-12-07T00:13:06;8.50;76.80
38325;DHT22;24126;52.672;13.622;2022-12-07T00:15:33;8.50;76.80
38325;DHT22;24126;52.672;13.622;2022-12-07T00:18:00;8.50;76.80
38325;DHT22;24126;52.672;13.622;2022-12-07T00:20:27;8.50;76.80
38325;DHT22;24126;52.672;13.622;2022-12-07T00:22:56;8.50;76.80
38325;DHT22;24126;52.672;13.622;2022-12-07T00:25:23;8.50;76.80
38325;DHT22;24126;52.672;13.622;2022-12-07T00:27:59;8.50;76.80
38325;DHT22;24126;52.672;13.622;2022-12-07T00:30:26;8.50;76.70
38325;DHT22;24126;52.672;13.622;2022-12-07T00:32:54;8.40;76.60
38325;DHT22;24126;52.672;13.622;2022-12-07T00:35:21;8.40;76.50
38325;DHT22;24126;52.672;13.622;2022-12-07T00:37:48;8.40;76.50
38325;DHT22;24126;52.672;13.622;2022-12-07T00:40:15;8.40;76.30
38325;DHT22;24126;52.672;13.622;2022-12-07T00:42:42;8.30;76.40
38325;DHT22;24126;52.672;13.622;2022-12-07T00:45:09;8.30;76.30
38325;DHT22;24126;52.672;13.622;2022-12-07T00:47:37;8.30;76.30
38325;DHT22;24126;52.672;13.622;2022-12-07T00:50:04;8.20;76.30
38325;DHT22;24126;52.672;13.622;2022-12-07T00:52:31;8.20;76.20
38325;DHT22;24126;52.672;13.622;2022-12-07T00:54:58;8.20;76.20
38325;DHT22;24126;52.672;13.622;2022-12-07T00:57:25;8.20;76.30
38325;DHT22;24126;52.672;13.622;2022-12-07T00:59:53;8.20;76.30
38325;DHT22;24126;52.672;13.622;2022-12-07T01:02:21;8.10;76.00
38325;DHT22;24126;52.672;13.622;2022-12-07T01:04:52;8.10;76.00
38325;DHT22;24126;52.672;13.622;2022-12-07T01:07:19;8.10;76.10
38325;DHT22;24126;52.672;13.622;2022-12-07T01:09:47;8.10;76.20
38325;DHT22;24126;52.672;13.622;2022-12-07T01:12:14;8.10;76.10
38325;DHT22;24126;52.672;13.622;2022-12-07T01:14:41;8.10;76.00
38325;DHT22;24126;52.672;13.622;2022-12-07T01:17:08;8.10;76.00
38325;DHT22;24126;52.672;13.622;2022-12-07T01:19:35;8.10;76.00
38325;DHT22;24126;52.672;13.622;2022-12-07T01:22:02;8.10;75.80
38325;DHT22;24126;52.672;13.622;2022-12-07T01:24:29;8.10;75.90
38325;DHT22;24126;52.672;13.622;2022-12-07T01:26:57;8.10;75.80
38325;DHT22;24126;52.672;13.622;2022-12-07T01:29:24;8.10;75.80
38325;DHT22;24126;52.672;13.622;2022-12-07T01:31:51;8.00;75.60
38325;DHT22;24126;52.672;13.622;2022-12-07T01:34:18;8.00;75.40
38325;DHT22;24126;52.672;13.622;2022-12-07T01:36:45;8.00;75.20
38325;DHT22;24126;52.672;13.622;2022-12-07T01:39:12;8.00;75.10
38325;DHT22;24126;52.672;13.622;2022-12-07T01:41:40;7.90;75.30
38325;DHT22;24126;52.672;13.622;2022-12-07T01:46:36;7.90;75.40
38325;DHT22;24126;52.672;13.622;2022-12-07T01:49:08;7.90;75.50
38325;DHT22;24126;52.672;13.622;2022-12-07T01:54:30;7.90;75.40
38325;DHT22;24126;52.672;13.622;2022-12-07T01:56:57;7.90;75.40
38325;DHT22;24126;52.672;13.622;2022-12-07T01:59:25;7.80;75.40
38325;DHT22;24126;52.672;13.622;2022-12-07T02:01:53;7.90;75.40
38325;DHT22;24126;52.672;13.622;2022-12-07T02:04:21;7.80;75.40
38325;DHT22;24126;52.672;13.622;2022-12-07T02:06:49;7.90;75.40
38325;DHT22;24126;52.672;13.622;2022-12-07T02:09:17;7.80;75.20
38325;DHT22;24126;52.672;13.622;2022-12-07T02:11:44;7.80;75.20
38325;DHT22;24126;52.672;13.622;2022-12-07T02:14:11;7.80;75.20
38325;DHT22;24126;52.672;13.622;2022-12-07T02:17:14;7.80;75.10
38325;DHT22;24126;52.672;13.622;2022-12-07T02:19:50;7.80;75.20
38325;DHT22;24126;52.672;13.622;2022-12-07T02:25:12;7.80;74.80
38325;DHT22;24126;52.672;13.622;2022-12-07T02:27:46;7.80;74.60
38325;DHT22;24126;52.672;13.622;2022-12-07T02:30:23;7.70;74.50
38325;DHT22;24126;52.672;13.622;2022-12-07T02:33:03;7.70;74.50
38325;DHT22;24126;52.672;13.622;2022-12-07T02:40:33;7.70;74.70
38325;DHT22;24126;52.672;13.622;2022-12-07T02:43:09;7.70;74.70
38325;DHT22;24126;52.672;13.622;2022-12-07T02:45:38;7.60;74.60
38325;DHT22;24126;52.672;13.622;2022-12-07T02:48:06;7.60;74.60
38325;DHT22;24126;52.672;13.622;2022-12-07T02:50:35;7.60;74.60
38325;DHT22;24126;52.672;13.622;2022-12-07T02:53:02;7.60;74.60
38325;DHT22;24126;52.672;13.622;2022-12-07T02:55:37;7.60;74.50
38325;DHT22;24126;52.672;13.622;2022-12-07T02:58:08;7.60;74.60
38325;DHT22;24126;52.672;13.622;2022-12-07T03:01:27;7.60;75.20
38325;DHT22;24126;52.672;13.622;2022-12-07T03:03:27;7.50;74.40
38325;DHT22;24126;52.672;13.622;2022-12-07T03:11:09;7.50;74.40
38325;DHT22;24126;52.672;13.622;2022-12-07T03:18:51;7.50;75.30
38325;DHT22;24126;52.672;13.622;2022-12-07T03:21:21;7.50;74.60
38325;DHT22;24126;52.672;13.622;2022-12-07T03:23:51;7.50;74.70
38325;DHT22;24126;52.672;13.622;2022-12-07T03:26:19;7.50;74.60
38325;DHT22;24126;52.672;13.622;2022-12-07T03:28:50;7.50;74.40
38325;DHT22;24126;52.672;13.622;2022-12-07T03:31:22;7.40;74.30
38325;DHT22;24126;52.672;13.622;2022-12-07T03:33:57;7.40;74.30
38325;DHT22;24126;52.672;13.622;2022-12-07T03:36:29;7.40;74.40
38325;DHT22;24126;52.672;13.622;2022-12-07T03:39:00;7.40;74.50
38325;DHT22;24126;52.672;13.622;2022-12-07T03:41:31;7.40;74.50
38325;DHT22;24126;52.672;13.622;2022-12-07T03:44:00;7.30;74.50
38325;DHT22;24126;52.672;13.622;2022-12-07T03:46:35;7.30;74.50
38325;DHT22;24126;52.672;13.622;2022-12-07T03:49:16;7.30;74.60
38325;DHT22;24126;52.672;13.622;2022-12-07T03:54:39;7.40;74.90
38325;DHT22;24126;52.672;13.622;2022-12-07T03:57:08;7.30;74.90
38325;DHT22;24126;52.672;13.622;2022-12-07T03:59:37;7.40;74.80
38325;DHT22;24126;52.672;13.622;2022-12-07T04:02:06;7.30;74.80
38325;DHT22;24126;52.672;13.622;2022-12-07T04:04:33;7.30;74.80
38325;DHT22;24126;52.672;13.622;2022-12-07T04:07:01;7.40;75.00
38325;DHT22;24126;52.672;13.622;2022-12-07T04:09:28;7.30;74.90
38325;DHT22;24126;52.672;13.622;2022-12-07T04:11:56;7.30;74.90
38325;DHT22;24126;52.672;13.622;2022-12-07T04:14:23;7.40;74.80
38325;DHT22;24126;52.672;13.622;2022-12-07T04:16:52;7.40;74.90
38325;DHT22;24126;52.672;13.622;2022-12-07T04:19:20;7.40;75.00
38325;DHT22;24126;52.672;13.622;2022-12-07T04:21:47;7.40;74.90
38325;DHT22;24126;52.672;13.622;2022-12-07T04:24:15;7.40;74.80
38325;DHT22;24126;52.672;13.622;2022-12-07T04:26:42;7.40;75.00
38325;DHT22;24126;52.672;13.622;2022-12-07T04:29:10;7.40;75.00
38325;DHT22;24126;52.672;13.622;2022-12-07T04:31:37;7.40;75.00
38325;DHT22;24126;52.672;13.622;2022-12-07T04:34:04;7.40;75.10
38325;DHT22;24126;52.672;13.622;2022-12-07T04:36:32;7.40;75.10
38325;DHT22;24126;52.672;13.622;2022-12-07T04:39:00;7.40;75.20
38325;DHT22;24126;52.672;13.622;2022-12-07T04:41:28;7.40;75.30
38325;DHT22;24126;52.672;13.622;2022-12-07T04:43:57;7.40;75.40
38325;DHT22;24126;52.672;13.622;2022-12-07T04:46:36;7.40;75.50
38325;DHT22;24126;52.672;13.622;2022-12-07T04:49:04;7.40;75.50
38325;DHT22;24126;52.672;13.622;2022-12-07T04:51:31;7.40;75.60
38325;DHT22;24126;52.672;13.622;2022-12-07T04:53:58;7.40;75.60
38325;DHT22;24126;52.672;13.622;2022-12-07T04:56:26;7.50;75.70
38325;DHT22;24126;52.672;13.622;2022-12-07T04:58:54;7.50;76.40
38325;DHT22;24126;52.672;13.622;2022-12-07T05:01:21;7.60;77.30
38325;DHT22;24126;52.672;13.622;2022-12-07T05:03:51;7.80;77.00
38325;DHT22;24126;52.672;13.622;2022-12-07T05:06:18;8.00;76.60
38325;DHT22;24126;52.672;13.622;2022-12-07T05:08:45;8.10;75.90
38325;DHT22;24126;52.672;13.622;2022-12-07T05:11:12;8.10;75.50
38325;DHT22;24126;52.672;13.622;2022-12-07T05:14:01;8.10;75.40
38325;DHT22;24126;52.672;13.622;2022-12-07T05:16:28;8.00;75.40
38325;DHT22;24126;52.672;13.622;2022-12-07T05:18:55;8.00;75.50
38325;DHT22;24126;52.672;13.622;2022-12-07T05:21:22;8.00;76.00
38325;DHT22;24126;52.672;13.622;2022-12-07T05:23:49;7.90;75.60
38325;DHT22;24126;52.672;13.622;2022-12-07T05:26:18;7.90;75.70
38325;DHT22;24126;52.672;13.622;2022-12-07T05:28:49;7.90;75.80
38325;DHT22;24126;52.672;13.622;2022-12-07T05:31:23;7.90;75.90
38325;DHT22;24126;52.672;13.622;2022-12-07T05:33:51;7.90;75.90
38325;DHT22;24126;52.672;13.622;2022-12-07T05:36:18;7.90;75.90
38325;DHT22;24126;52.672;13.622;2022-12-07T05:38:45;7.90;76.00
38325;DHT22;24126;52.672;13.622;2022-12-07T05:41:28;7.90;76.10
38325;DHT22;24126;52.672;13.622;2022-12-07T05:44:13;7.80;76.20
38325;DHT22;24126;52.672;13.622;2022-12-07T05:46:40;7.80;76.30
38325;DHT22;24126;52.672;13.622;2022-12-07T05:49:07;7.80;76.40
38325;DHT22;24126;52.672;13.622;2022-12-07T05:51:34;7.80;76.40
38325;DHT22;24126;52.672;13.622;2022-12-07T05:54:02;7.80;76.40
38325;DHT22;24126;52.672;13.622;2022-12-07T05:56:29;7.80;76.40
38325;DHT22;24126;52.672;13.622;2022-12-07T05:58:56;7.80;76.50
38325;DHT22;24126;52.672;13.622;2022-12-07T06:01:41;7.90;76.90
38325;DHT22;24126;52.672;13.622;2022-12-07T06:04:08;7.90;76.90
38325;DHT22;24126;52.672;13.622;2022-12-07T06:09:06;8.00;76.60
38325;DHT22;24126;52.672;13.622;2022-12-07T06:11:34;8.00;76.60
38325;DHT22;24126;52.672;13.622;2022-12-07T06:14:18;8.00;76.50
38325;DHT22;24126;52.672;13.622;2022-12-07T06:16:46;8.00;76.50
38325;DHT22;24126;52.672;13.622;2022-12-07T06:19:13;8.00;76.50
38325;DHT22;24126;52.672;13.622;2022-12-07T06:21:40;8.00;76.50
38325;DHT22;24126;52.672;13.622;2022-12-07T06:24:09;8.00;76.50
38325;DHT22;24126;52.672;13.622;2022-12-07T06:26:38;8.00;76.60
38325;DHT22;24126;52.672;13.622;2022-12-07T06:29:06;8.00;76.60
38325;DHT22;24126;52.672;13.622;2022-12-07T06:31:33;8.00;76.50
38325;DHT22;24126;52.672;13.622;2022-12-07T06:34:01;8.10;76.60
38325;DHT22;24126;52.672;13.622;2022-12-07T06:36:29;8.10;76.60
38325;DHT22;24126;52.672;13.622;2022-12-07T06:38:56;8.00;76.60
38325;DHT22;24126;52.672;13.622;2022-12-07T06:41:23;8.10;76.70
38325;DHT22;24126;52.672;13.622;2022-12-07T06:43:50;8.00;76.70
38325;DHT22;24126;52.672;13.622;2022-12-07T06:46:18;8.00;76.70
38325;DHT22;24126;52.672;13.622;2022-12-07T06:48:45;8.00;76.80
38325;DHT22;24126;52.672;13.622;2022-12-07T06:51:12;8.00;76.80
38325;DHT22;24126;52.672;13.622;2022-12-07T06:53:40;8.10;76.90
38325;DHT22;24126;52.672;13.622;2022-12-07T06:56:07;8.10;76.90
38325;DHT22;24126;52.672;13.622;2022-12-07T06:58:34;8.00;77.00
38325;DHT22;24126;52.672;13.622;2022-12-07T07:01:01;8.10;77.00
38325;DHT22;24126;52.672;13.622;2022-12-07T07:03:28;8.10;77.10
38325;DHT22;24126;52.672;13.622;2022-12-07T07:05:55;8.10;77.10
38325;DHT22;24126;52.672;13.622;2022-12-07T07:08:23;8.10;77.10
38325;DHT22;24126;52.672;13.622;2022-12-07T07:10:53;8.10;77.10
38325;DHT22;24126;52.672;13.622;2022-12-07T07:13:20;8.10;77.20
38325;DHT22;24126;52.672;13.622;2022-12-07T07:15:47;8.10;77.20
38325;DHT22;24126;52.672;13.622;2022-12-07T07:18:14;8.10;77.20
38325;DHT22;24126;52.672;13.622;2022-12-07T07:20:41;8.10;77.90
38325;DHT22;24126;52.672;13.622;2022-12-07T07:23:08;8.10;77.20
38325;DHT22;24126;52.672;13.622;2022-12-07T07:25:35;8.10;77.20
38325;DHT22;24126;52.672;13.622;2022-12-07T07:28:03;8.20;77.30
38325;DHT22;24126;52.672;13.622;2022-12-07T07:30:31;8.20;77.30
38325;DHT22;24126;52.672;13.622;2022-12-07T07:32:59;8.10;77.30
38325;DHT22;24126;52.672;13.622;2022-12-07T07:35:27;8.10;77.40
38325;DHT22;24126;52.672;13.622;2022-12-07T07:37:54;8.20;77.50
38325;DHT22;24126;52.672;13.622;2022-12-07T07:40:21;8.10;77.50
38325;DHT22;24126;52.672;13.622;2022-12-07T07:42:52;8.10;77.50
38325;DHT22;24126;52.672;13.622;2022-12-07T07:45:20;8.20;77.60
38325;DHT22;24126;52.672;13.622;2022-12-07T07:47:48;8.20;77.70
38325;DHT22;24126;52.672;13.622;2022-12-07T07:50:15;8.20;77.70
38325;DHT22;24126;52.672;13.622;2022-12-07T07:52:43;8.20;77.70
38325;DHT22;24126;52.672;13.622;2022-12-07T07:55:10;8.20;77.70
38325;DHT22;24126;52.672;13.622;2022-12-07T07:57:53;8.20;77.60
38325;DHT22;24126;52.672;13.622;2022-12-07T08:00:20;8.30;77.60
38325;DHT22;24126;52.672;13.622;2022-12-07T08:02:48;8.30;77.50
38325;DHT22;24126;52.672;13.622;2022-12-07T08:05:15;8.30;77.30
38325;DHT22;24126;52.672;13.622;2022-12-07T08:07:43;8.30;77.10
38325;DHT22;24126;52.672;13.622;2022-12-07T08:10:11;8.30;76.90
38325;DHT22;24126;52.672;13.622;2022-12-07T08:12:39;8.20;77.30
38325;DHT22;24126;52.672;13.622;2022-12-07T08:15:28;8.20;76.40
38325;DHT22;24126;52.672;13.622;2022-12-07T08:17:55;8.10;76.50
38325;DHT22;24126;52.672;13.622;2022-12-07T08:20:23;8.10;76.60
38325;DHT22;24126;52.672;13.622;2022-12-07T08:22:50;8.10;76.70
38325;DHT22;24126;52.672;13.622;2022-12-07T08:25:17;8.00;77.00
38325;DHT22;24126;52.672;13.622;2022-12-07T08:27:44;8.10;77.10
38325;DHT22;24126;52.672;13.622;2022-12-07T08:30:11;8.10;77.10
38325;DHT22;24126;52.672;13.622;2022-12-07T08:32:39;8.10;77.10
38325;DHT22;24126;52.672;13.622;2022-12-07T08:35:06;8.10;77.10
38325;DHT22;24126;52.672;13.622;2022-12-07T08:37:39;8.20;77.00
38325;DHT22;24126;52.672;13.622;2022-12-07T08:40:07;8.20;77.00
38325;DHT22;24126;52.672;13.622;2022-12-07T08:42:35;8.20;76.90
38325;DHT22;24126;52.672;13.622;2022-12-07T08:45:06;8.20;76.80
38325;DHT22;24126;52.672;13.622;2022-12-07T08:47:34;8.30;76.90
38325;DHT22;24126;52.672;13.622;2022-12-07T08:50:03;8.30;77.00
38325;DHT22;24126;52.672;13.622;2022-12-07T08:52:31;8.30;76.90
38325;DHT22;24126;52.672;13.622;2022-12-07T08:54:58;8.40;77.60
38325;DHT22;24126;52.672;13.622;2022-12-07T08:57:27;8.40;76.80
38325;DHT22;24126;52.672;13.622;2022-12-07T08:59:54;8.40;76.90
38325;DHT22;24126;52.672;13.622;2022-12-07T09:02:21;8.40;76.70
38325;DHT22;24126;52.672;13.622;2022-12-07T09:04:49;8.40;76.70
38325;DHT22;24126;52.672;13.622;2022-12-07T09:07:16;8.40;76.70
38325;DHT22;24126;52.672;13.622;2022-12-07T09:09:43;8.40;76.80
38325;DHT22;24126;52.672;13.622;2022-12-07T09:12:10;8.40;76.70
38325;DHT22;24126;52.672;13.622;2022-12-07T09:14:38;8.40;76.60
38325;DHT22;24126;52.672;13.622;2022-12-07T09:17:06;8.40;76.70
38325;DHT22;24126;52.672;13.622;2022-12-07T09:19:33;8.40;76.60
38325;DHT22;24126;52.672;13.622;2022-12-07T09:22:01;8.40;76.60
38325;DHT22;24126;52.672;13.622;2022-12-07T09:24:28;8.40;76.70
38325;DHT22;24126;52.672;13.622;2022-12-07T09:26:55;8.40;76.50
38325;DHT22;24126;52.672;13.622;2022-12-07T09:29:22;8.40;76.50
38325;DHT22;24126;52.672;13.622;2022-12-07T09:31:49;8.40;76.50
38325;DHT22;24126;52.672;13.622;2022-12-07T09:34:16;8.40;77.20
38325;DHT22;24126;52.672;13.622;2022-12-07T09:36:44;8.40;76.50
38325;DHT22;24126;52.672;13.622;2022-12-07T09:39:11;8.40;76.50
38325;DHT22;24126;52.672;13.622;2022-12-07T09:41:39;8.40;76.30
38325;DHT22;24126;52.672;13.622;2022-12-07T09:44:11;8.40;76.40
38325;DHT22;24126;52.672;13.622;2022-12-07T09:46:40;8.40;76.40
38325;DHT22;24126;52.672;13.622;2022-12-07T09:49:10;8.40;76.20
38325;DHT22;24126;52.672;13.622;2022-12-07T09:51:38;8.40;76.20
38325;DHT22;24126;52.672;13.622;2022-12-07T09:54:07;8.40;76.10
38325;DHT22;24126;52.672;13.622;2022-12-07T09:56:36;8.40;76.10
38325;DHT22;24126;52.672;13.622;2022-12-07T09:59:03;8.30;76.10
38325;DHT22;24126;52.672;13.622;2022-12-07T10:01:31;8.40;76.10
38325;DHT22;24126;52.672;13.622;2022-12-07T10:04:01;8.40;76.10
38325;DHT22;24126;52.672;13.622;2022-12-07T10:06:29;8.40;75.90
38325;DHT22;24126;52.672;13.622;2022-12-07T10:08:56;8.40;75.80
38325;DHT22;24126;52.672;13.622;2022-12-07T10:11:23;8.40;75.70
38325;DHT22;24126;52.672;13.622;2022-12-07T10:13:51;8.40;75.60
38325;DHT22;24126;52.672;13.622;2022-12-07T10:19:04;8.50;75.30
38325;DHT22;24126;52.672;13.622;2022-12-07T10:24:30;8.40;74.50
38325;DHT22;24126;52.672;13.622;2022-12-07T10:26:58;8.40;74.40
38325;DHT22;24126;52.672;13.622;2022-12-07T10:29:36;8.30;74.30
38325;DHT22;24126;52.672;13.622;2022-12-07T10:32:05;8.30;74.30
38325;DHT22;24126;52.672;13.622;2022-12-07T10:34:35;8.20;74.30
38325;DHT22;24126;52.672;13.622;2022-12-07T10:39:49;8.20;74.10
38325;DHT22;24126;52.672;13.622;2022-12-07T10:42:23;8.30;74.30
38325;DHT22;24126;52.672;13.622;2022-12-07T10:45:07;8.30;74.20
38325;DHT22;24126;52.672;13.622;2022-12-07T11:07:45;8.60;73.10
38325;DHT22;24126;52.672;13.622;2022-12-07T11:10:17;8.60;73.10
38325;DHT22;24126;52.672;13.622;2022-12-07T11:15:26;8.70;72.90
38325;DHT22;24126;52.672;13.622;2022-12-07T11:18:13;8.70;72.60
38325;DHT22;24126;52.672;13.622;2022-12-07T11:28:32;8.50;72.70
38325;DHT22;24126;52.672;13.622;2022-12-07T11:31:06;8.50;72.70
38325;DHT22;24126;52.672;13.622;2022-12-07T11:33:47;8.50;72.80
38325;DHT22;24126;52.672;13.622;2022-12-07T11:39:09;8.70;72.90
38325;DHT22;24126;52.672;13.622;2022-12-07T11:41:39;8.80;72.80
38325;DHT22;24126;52.672;13.622;2022-12-07T11:44:22;8.90;72.70
38325;DHT22;24126;52.672;13.622;2022-12-07T11:47:28;9.00;72.20
38325;DHT22;24126;52.672;13.622;2022-12-07T11:55:22;8.80;71.80
38325;DHT22;24126;52.672;13.622;2022-12-07T11:57:52;8.70;71.80
38325;DHT22;24126;52.672;13.622;2022-12-07T12:00:22;8.70;72.00
38325;DHT22;24126;52.672;13.622;2022-12-07T12:03:33;8.60;72.30
38325;DHT22;24126;52.672;13.622;2022-12-07T12:05:41;8.60;72.30
38325;DHT22;24126;52.672;13.622;2022-12-07T12:08:13;8.60;72.20
38325;DHT22;24126;52.672;13.622;2022-12-07T12:19:27;8.70;72.00
38325;DHT22;24126;52.672;13.622;2022-12-07T12:24:53;8.70;72.20
38325;DHT22;24126;52.672;13.622;2022-12-07T12:29:54;8.70;72.10
38325;DHT22;24126;52.672;13.622;2022-12-07T12:32:44;8.70;72.10
38325;DHT22;24126;52.672;13.622;2022-12-07T12:38:20;8.70;72.00
38325;DHT22;24126;52.672;13.622;2022-12-07T12:40:49;8.70;72.00
38325;DHT22;24126;52.672;13.622;2022-12-07T12:43:59;8.70;71.80
38325;DHT22;24126;52.672;13.622;2022-12-07T12:51:48;8.80;72.20
38325;DHT22;24126;52.672;13.622;2022-12-07T12:56:55;8.90;72.10
38325;DHT22;24126;52.672;13.622;2022-12-07T13:06:59;9.00;71.80
38325;DHT22;24126;52.672;13.622;2022-12-07T13:09:27;9.00;71.90
38325;DHT22;24126;52.672;13.622;2022-12-07T13:12:00;9.00;71.80
38325;DHT22;24126;52.672;13.622;2022-12-07T13:17:53;8.90;72.00
38325;DHT22;24126;52.672;13.622;2022-12-07T13:24:57;8.90;72.20
38325;DHT22;24126;52.672;13.622;2022-12-07T13:30:01;8.90;72.10
38325;DHT22;24126;52.672;13.622;2022-12-07T13:32:28;8.90;72.00
38325;DHT22;24126;52.672;13.622;2022-12-07T13:34:56;8.90;72.20
38325;DHT22;24126;52.672;13.622;2022-12-07T13:37:32;8.90;72.30
38325;DHT22;24126;52.672;13.622;2022-12-07T13:40:00;8.90;72.40
38325;DHT22;24126;52.672;13.622;2022-12-07T13:42:29;8.90;72.50
38325;DHT22;24126;52.672;13.622;2022-12-07T13:44:57;8.90;72.30
38325;DHT22;24126;52.672;13.622;2022-12-07T13:49:58;8.90;72.20
38325;DHT22;24126;52.672;13.622;2022-12-07T13:52:26;8.90;72.20
38325;DHT22;24126;52.672;13.622;2022-12-07T13:54:57;8.90;72.10
38325;DHT22;24126;52.672;13.622;2022-12-07T13:57:26;8.90;72.00
38325;DHT22;24126;52.672;13.622;2022-12-07T13:59:53;8.90;72.10
38325;DHT22;24126;52.672;13.622;2022-12-07T14:02:32;8.80;72.10
38325;DHT22;24126;52.672;13.622;2022-12-07T14:05:08;8.80;72.10
38325;DHT22;24126;52.672;13.622;2022-12-07T14:07:47;8.80;72.10
38325;DHT22;24126;52.672;13.622;2022-12-07T14:10:23;8.80;72.10
38325;DHT22;24126;52.672;13.622;2022-12-07T14:12:50;8.80;71.90
38325;DHT22;24126;52.672;13.622;2022-12-07T14:15:25;8.80;71.90
38325;DHT22;24126;52.672;13.622;2022-12-07T14:17:54;8.70;71.80
38325;DHT22;24126;52.672;13.622;2022-12-07T14:20:35;8.70;71.90
38325;DHT22;24126;52.672;13.622;2022-12-07T14:23:03;8.70;71.80
38325;DHT22;24126;52.672;13.622;2022-12-07T14:25:49;8.70;71.70
38325;DHT22;24126;52.672;13.622;2022-12-07T14:28:30;8.70;71.70
38325;DHT22;24126;52.672;13.622;2022-12-07T14:30:58;8.70;71.70
38325;DHT22;24126;52.672;13.622;2022-12-07T14:33:26;8.70;71.70
38325;DHT22;24126;52.672;13.622;2022-12-07T14:35:54;8.60;71.40
38325;DHT22;24126;52.672;13.622;2022-12-07T14:38:24;8.60;71.40
38325;DHT22;24126;52.672;13.622;2022-12-07T14:40:52;8.60;71.30
38325;DHT22;24126;52.672;13.622;2022-12-07T14:43:20;8.60;71.30
38325;DHT22;24126;52.672;13.622;2022-12-07T14:45:47;8.50;71.20
38325;DHT22;24126;52.672;13.622;2022-12-07T14:48:15;8.50;71.20
38325;DHT22;24126;52.672;13.622;2022-12-07T14:50:43;8.50;71.10
38325;DHT22;24126;52.672;13.622;2022-12-07T14:53:12;8.50;71.20
38325;DHT22;24126;52.672;13.622;2022-12-07T14:55:40;8.50;71.20
38325;DHT22;24126;52.672;13.622;2022-12-07T14:58:11;8.40;71.10
38325;DHT22;24126;52.672;13.622;2022-12-07T15:00:40;8.40;71.20
38325;DHT22;24126;52.672;13.622;2022-12-07T15:03:10;8.40;71.10
38325;DHT22;24126;52.672;13.622;2022-12-07T15:05:39;8.40;71.10
38325;DHT22;24126;52.672;13.622;2022-12-07T15:08:08;8.30;71.20
38325;DHT22;24126;52.672;13.622;2022-12-07T15:10:35;8.30;71.10
38325;DHT22;24126;52.672;13.622;2022-12-07T15:13:05;8.30;71.10
38325;DHT22;24126;52.672;13.622;2022-12-07T15:15:51;8.20;71.10
38325;DHT22;24126;52.672;13.622;2022-12-07T15:18:20;8.20;71.20
38325;DHT22;24126;52.672;13.622;2022-12-07T15:20:49;8.20;71.20
38325;DHT22;24126;52.672;13.622;2022-12-07T15:23:17;8.20;71.20
38325;DHT22;24126;52.672;13.622;2022-12-07T15:25:45;8.10;71.20
38325;DHT22;24126;52.672;13.622;2022-12-07T15:28:13;8.10;71.30
38325;DHT22;24126;52.672;13.622;2022-12-07T15:30:41;8.10;71.20
38325;DHT22;24126;52.672;13.622;2022-12-07T15:33:09;8.10;71.30
38325;DHT22;24126;52.672;13.622;2022-12-07T15:35:40;8.00;71.40
38325;DHT22;24126;52.672;13.622;2022-12-07T15:38:07;8.00;71.60
38325;DHT22;24126;52.672;13.622;2022-12-07T15:40:34;8.10;71.70
38325;DHT22;24126;52.672;13.622;2022-12-07T15:43:02;8.10;71.90
38325;DHT22;24126;52.672;13.622;2022-12-07T15:45:29;8.10;71.80
38325;DHT22;24126;52.672;13.622;2022-12-07T15:47:56;8.10;71.90
38325;DHT22;24126;52.672;13.622;2022-12-07T15:50:23;8.10;71.90
38325;DHT22;24126;52.672;13.622;2022-12-07T15:52:50;8.00;71.60
38325;DHT22;24126;52.672;13.622;2022-12-07T15:55:17;7.90;71.50
38325;DHT22;24126;52.672;13.622;2022-12-07T15:57:54;7.80;71.40
38325;DHT22;24126;52.672;13.622;2022-12-07T16:00:21;7.70;71.80
38325;DHT22;24126;52.672;13.622;2022-12-07T16:02:48;7.60;72.00
38325;DHT22;24126;52.672;13.622;2022-12-07T16:05:16;7.50;72.20
38325;DHT22;24126;52.672;13.622;2022-12-07T16:10:14;7.40;72.40
38325;DHT22;24126;52.672;13.622;2022-12-07T16:12:41;7.30;73.10
38325;DHT22;24126;52.672;13.622;2022-12-07T16:15:08;7.20;72.70
38325;DHT22;24126;52.672;13.622;2022-12-07T16:17:36;7.20;72.80
38325;DHT22;24126;52.672;13.622;2022-12-07T16:20:03;7.10;73.00
38325;DHT22;24126;52.672;13.622;2022-12-07T16:22:30;7.10;73.10
38325;DHT22;24126;52.672;13.622;2022-12-07T16:24:58;7.10;73.10
38325;DHT22;24126;52.672;13.622;2022-12-07T16:27:25;7.10;73.10
38325;DHT22;24126;52.672;13.622;2022-12-07T16:29:52;7.10;73.10
38325;DHT22;24126;52.672;13.622;2022-12-07T16:32:19;7.10;73.20
38325;DHT22;24126;52.672;13.622;2022-12-07T16:34:47;7.10;73.20
38325;DHT22;24126;52.672;13.622;2022-12-07T16:37:14;7.10;73.40
38325;DHT22;24126;52.672;13.622;2022-12-07T16:42:34;7.10;73.20
38325;DHT22;24126;52.672;13.622;2022-12-07T16:45:02;7.00;73.30
38325;DHT22;24126;52.672;13.622;2022-12-07T16:47:29;7.00;73.40
38325;DHT22;24126;52.672;13.622;2022-12-07T16:49:57;7.00;73.40
38325;DHT22;24126;52.672;13.622;2022-12-07T16:52:26;7.00;73.40
38325;DHT22;24126;52.672;13.622;2022-12-07T16:54:53;7.00;73.50
38325;DHT22;24126;52.672;13.622;2022-12-07T16:57:21;7.00;73.50
38325;DHT22;24126;52.672;13.622;2022-12-07T16:59:48;7.00;73.50
38325;DHT22;24126;52.672;13.622;2022-12-07T17:02:15;7.00;73.50
38325;DHT22;24126;52.672;13.622;2022-12-07T17:04:42;7.00;73.60
38325;DHT22;24126;52.672;13.622;2022-12-07T17:07:09;7.00;73.60
38325;DHT22;24126;52.672;13.622;2022-12-07T17:09:37;7.00;73.90
38325;DHT22;24126;52.672;13.622;2022-12-07T17:12:04;7.00;73.70
38325;DHT22;24126;52.672;13.622;2022-12-07T17:17:51;7.00;73.90
38325;DHT22;24126;52.672;13.622;2022-12-07T17:20:18;6.90;73.90
38325;DHT22;24126;52.672;13.622;2022-12-07T17:22:45;6.90;74.00
38325;DHT22;24126;52.672;13.622;2022-12-07T17:25:13;6.90;74.10
38325;DHT22;24126;52.672;13.622;2022-12-07T17:27:41;6.90;74.10
38325;DHT22;24126;52.672;13.622;2022-12-07T17:32:47;6.90;74.20
38325;DHT22;24126;52.672;13.622;2022-12-07T17:35:14;6.90;74.20
38325;DHT22;24126;52.672;13.622;2022-12-07T17:40:34;6.90;74.20
38325;DHT22;24126;52.672;13.622;2022-12-07T17:43:01;6.90;74.10
38325;DHT22;24126;52.672;13.622;2022-12-07T17:45:28;6.90;74.10
38325;DHT22;24126;52.672;13.622;2022-12-07T17:47:55;6.90;74.10
38325;DHT22;24126;52.672;13.622;2022-12-07T17:50:24;6.90;74.10
38325;DHT22;24126;52.672;13.622;2022-12-07T17:53:07;6.90;74.10
38325;DHT22;24126;52.672;13.622;2022-12-07T17:55:37;6.90;74.10
38325;DHT22;24126;52.672;13.622;2022-12-07T17:58:05;6.90;74.10
38325;DHT22;24126;52.672;13.622;2022-12-07T18:00:32;6.90;74.10